createdAt,value
2023-04-29T00:02:16.403Z,100062.66
2023-04-29T00:04:49.020Z,100064.30
2023-04-29T00:07:18.678Z,100063.58
2023-04-29T00:09:55.192Z,100057.66
2023-04-29T00:12:26.415Z,100057.77
2023-04-29T00:14:56.757Z,100057.48
2023-04-29T00:17:26.429Z,100056.59
2023-04-29T00:19:55.136Z,100061.56
2023-04-29T00:22:26.300Z,100055.92
2023-04-29T00:24:57.402Z,100059.55
2023-04-29T00:27:27.632Z,100054.86
2023-04-29T00:29:58.156Z,100053.00
2023-04-29T00:32:27.439Z,100056.39
2023-04-29T00:34:57.872Z,100052.48
2023-04-29T00:37:27.427Z,100053.34
2023-04-29T00:39:58.312Z,100045.45
2023-04-29T00:42:29.569Z,100048.50
2023-04-29T00:45:01.664Z,100046.40
2023-04-29T00:47:31.031Z,100044.04
2023-04-29T00:50:00.030Z,100043.86
2023-04-29T00:52:56.131Z,100042.63
2023-04-29T00:55:26.772Z,100040.89
2023-04-29T00:57:57.444Z,100039.64
2023-04-29T01:00:30.947Z,100043.17
2023-04-29T01:03:00.197Z,100039.23
2023-04-29T01:05:33.317Z,100040.33
2023-04-29T01:08:06.099Z,100030.26
2023-04-29T01:10:41.107Z,100034.41
2023-04-29T01:13:14.818Z,100033.06
2023-04-29T01:16:02.105Z,100034.17
2023-04-29T01:18:42.750Z,100033.44
2023-04-29T01:21:12.183Z,100033.70
2023-04-29T01:23:42.757Z,100033.10
2023-04-29T01:26:13.441Z,100033.59
2023-04-29T01:29:24.440Z,100025.42
2023-04-29T01:32:06.696Z,100025.04
2023-04-29T01:34:45.446Z,100024.69
2023-04-29T01:37:29.341Z,100025.63
2023-04-29T01:40:02.974Z,100024.63
2023-04-29T01:42:34.744Z,100020.27
2023-04-29T01:45:11.760Z,100024.39
2023-04-29T01:47:43.490Z,100024.32
2023-04-29T01:50:13.505Z,100021.84
2023-04-29T01:52:43.975Z,100020.05
2023-04-29T01:55:15.628Z,100021.84
2023-04-29T01:58:03.898Z,100024.59
2023-04-29T02:00:52.378Z,100019.37
2023-04-29T02:03:24.115Z,100017.89
2023-04-29T02:05:58.308Z,100015.69
2023-04-29T02:08:28.078Z,100012.45
2023-04-29T02:10:58.885Z,100012.60
2023-04-29T02:13:37.968Z,100007.02
2023-04-29T02:16:10.972Z,100009.39
2023-04-29T02:18:43.249Z,100003.94
2023-04-29T02:21:12.770Z,100007.44
2023-04-29T02:23:42.499Z,100012.72
2023-04-29T02:26:11.564Z,100011.23
2023-04-29T02:28:40.406Z,100008.05
2023-04-29T02:31:24.216Z,100006.95
2023-04-29T02:33:53.197Z,100005.10
2023-04-29T02:36:25.166Z,100004.42
2023-04-29T02:38:57.287Z,100001.69
2023-04-29T02:41:27.302Z,100006.63
2023-04-29T02:43:58.500Z,100000.23
2023-04-29T02:46:31.019Z,100003.56
2023-04-29T02:49:01.732Z,99996.73
2023-04-29T02:51:31.439Z,99994.63
2023-04-29T02:54:00.960Z,99996.67
2023-04-29T02:56:32.066Z,99984.84
2023-04-29T02:59:00.883Z,99996.55
2023-04-29T03:01:33.307Z,99980.54
2023-04-29T03:04:05.927Z,99980.92
2023-04-29T03:06:37.303Z,99993.94
2023-04-29T03:09:08.151Z,99974.61
2023-04-29T03:11:40.712Z,99978.69
2023-04-29T03:14:10.831Z,99982.98
2023-04-29T03:16:40.763Z,99975.19
2023-04-29T03:19:11.182Z,99974.30
2023-04-29T03:21:41.570Z,99973.98
2023-04-29T03:24:12.876Z,99971.98
2023-04-29T03:26:43.557Z,99965.23
2023-04-29T03:29:13.091Z,99967.86
2023-04-29T03:31:42.295Z,99963.52
2023-04-29T03:34:13.311Z,99964.16
2023-04-29T03:36:45.309Z,99967.75
2023-04-29T03:39:17.836Z,99970.52
2023-04-29T03:41:48.147Z,99971.51
2023-04-29T03:44:17.581Z,99976.96
2023-04-29T03:46:48.800Z,99975.40
2023-04-29T03:49:19.673Z,99971.61
2023-04-29T03:52:14.504Z,99971.20
2023-04-29T03:54:46.449Z,99969.20
2023-04-29T03:57:16.612Z,99971.58
2023-04-29T03:59:46.409Z,99971.21
2023-04-29T04:02:17.988Z,99971.86
2023-04-29T04:04:48.394Z,99968.27
2023-04-29T04:07:17.926Z,99966.62
2023-04-29T04:10:21.178Z,99970.19
2023-04-29T04:12:54.560Z,99970.81
2023-04-29T04:15:27.942Z,99969.90
2023-04-29T04:18:00.010Z,99967.24
2023-04-29T04:20:32.851Z,99962.98
2023-04-29T04:23:01.865Z,99962.52
2023-04-29T04:25:32.359Z,99962.20
2023-04-29T04:28:14.152Z,99963.74
2023-04-29T04:31:04.432Z,99964.26
2023-04-29T04:33:34.994Z,99970.60
2023-04-29T04:36:05.943Z,99970.79
2023-04-29T04:38:36.650Z,99965.05
2023-04-29T04:41:08.826Z,99962.16
2023-04-29T04:43:41.310Z,99969.36
2023-04-29T04:46:19.774Z,99969.23
2023-04-29T04:49:07.658Z,99965.11
2023-04-29T04:51:42.194Z,99956.85
2023-04-29T04:54:12.787Z,99961.36
2023-04-29T04:56:41.700Z,99960.05
2023-04-29T04:59:12.561Z,99960.04
2023-04-29T05:01:42.136Z,99959.96
2023-04-29T05:04:12.897Z,99960.40
2023-04-29T05:06:44.541Z,99958.98
2023-04-29T05:09:16.208Z,99963.75
2023-04-29T05:11:48.606Z,99963.29
2023-04-29T05:14:19.180Z,99962.20
2023-04-29T05:16:52.035Z,99961.36
2023-04-29T05:19:24.544Z,99961.79
2023-04-29T05:21:53.695Z,99964.50
2023-04-29T05:24:23.089Z,99967.70
2023-04-29T05:26:54.423Z,99968.14
2023-04-29T05:29:23.366Z,99966.02
2023-04-29T05:31:56.921Z,99971.17
2023-04-29T05:34:26.292Z,99969.84
2023-04-29T05:36:57.330Z,99970.09
2023-04-29T05:39:29.684Z,99976.40
2023-04-29T05:42:07.096Z,99976.43
2023-04-29T05:44:43.622Z,99975.45
2023-04-29T05:47:16.602Z,99978.52
2023-04-29T05:49:45.821Z,99983.55
2023-04-29T05:52:16.783Z,99982.77
2023-04-29T05:54:48.559Z,99985.37
2023-04-29T05:57:23.081Z,99990.26
2023-04-29T05:59:55.607Z,99988.52
2023-04-29T06:02:24.742Z,99986.20
2023-04-29T06:04:55.754Z,99988.73
2023-04-29T06:07:44.436Z,99981.58
2023-04-29T06:10:36.737Z,99990.98
2023-04-29T06:13:05.719Z,99990.58
2023-04-29T06:15:38.120Z,99992.94
2023-04-29T06:18:07.405Z,99988.63
2023-04-29T06:20:37.856Z,99986.21
2023-04-29T06:23:07.986Z,99990.05
2023-04-29T06:25:40.129Z,99990.64
2023-04-29T06:28:11.265Z,99990.91
2023-04-29T06:30:41.157Z,99991.23
2023-04-29T06:33:13.429Z,99982.52
2023-04-29T06:35:42.771Z,99981.73
2023-04-29T06:38:12.921Z,99983.18
2023-04-29T06:41:06.264Z,99982.27
2023-04-29T06:43:51.908Z,99974.08
2023-04-29T06:47:01.440Z,99973.47
2023-04-29T06:49:54.500Z,99976.67
2023-04-29T06:52:25.279Z,99976.20
2023-04-29T06:54:58.645Z,99966.08
2023-04-29T06:57:30.224Z,99964.33
2023-04-29T07:00:01.968Z,99963.88
2023-04-29T07:02:35.426Z,99959.95
2023-04-29T07:05:07.094Z,99957.66
2023-04-29T07:07:39.199Z,99959.62
2023-04-29T07:10:09.928Z,99955.92
2023-04-29T07:12:42.423Z,99958.34
2023-04-29T07:15:12.859Z,99955.88
2023-04-29T07:17:43.256Z,99960.85
2023-04-29T07:20:13.208Z,99961.04
2023-04-29T07:22:43.130Z,99959.02
2023-04-29T07:25:12.250Z,99948.14
2023-04-29T07:27:41.872Z,99951.82
2023-04-29T07:30:12.142Z,99949.88
2023-04-29T07:32:41.376Z,99951.45
2023-04-29T07:35:10.212Z,99950.56
2023-04-29T07:37:40.642Z,99948.39
2023-04-29T07:40:12.536Z,99948.25
2023-04-29T07:42:47.898Z,99946.02
2023-04-29T07:45:18.799Z,99948.88
2023-04-29T07:47:52.584Z,99947.63
2023-04-29T07:50:25.716Z,99945.24
2023-04-29T07:52:58.283Z,99942.02
2023-04-29T07:55:31.510Z,99944.35
2023-04-29T07:58:01.843Z,99946.86
2023-04-29T08:00:31.563Z,99944.51
2023-04-29T08:03:06.737Z,99945.02
2023-04-29T08:05:38.330Z,99944.62
2023-04-29T08:08:08.960Z,99950.39
2023-04-29T08:10:44.376Z,99948.88
2023-04-29T08:13:13.148Z,99949.84
2023-04-29T08:15:43.196Z,99953.08
2023-04-29T08:18:12.731Z,99949.95
2023-04-29T08:20:42.847Z,99950.63
2023-04-29T08:23:12.080Z,99957.09
2023-04-29T08:25:48.061Z,99957.60
2023-04-29T08:28:20.619Z,99955.23
2023-04-29T08:30:50.317Z,99952.39
2023-04-29T08:33:22.854Z,99951.98
2023-04-29T08:35:59.508Z,99952.70
2023-04-29T08:38:32.698Z,99954.39
2023-04-29T08:41:03.555Z,99949.42
2023-04-29T08:43:35.794Z,99948.02
2023-04-29T08:46:07.836Z,99950.45
2023-04-29T08:48:42.517Z,99946.97
2023-04-29T08:51:17.713Z,99948.04
2023-04-29T08:54:57.152Z,99945.42
2023-04-29T08:57:51.175Z,99946.30
2023-04-29T09:00:25.677Z,99945.98
2023-04-29T09:02:59.503Z,99945.94
2023-04-29T09:05:33.054Z,99946.63
2023-04-29T09:08:03.716Z,99949.05
2023-04-29T09:10:34.311Z,99947.10
2023-04-29T09:13:06.448Z,99946.66
2023-04-29T09:15:43.247Z,99946.98
2023-04-29T09:18:14.908Z,99945.20
2023-04-29T09:20:45.103Z,99946.99
2023-04-29T09:23:14.506Z,99946.43
2023-04-29T09:25:55.420Z,99947.81
2023-04-29T09:28:28.054Z,99942.45
2023-04-29T09:30:59.001Z,99941.77
2023-04-29T09:33:31.903Z,99942.16
2023-04-29T09:36:04.973Z,99942.99
2023-04-29T09:38:35.090Z,99939.69
2023-04-29T09:41:12.464Z,99934.17
2023-04-29T09:43:43.352Z,99932.69
2023-04-29T09:46:18.441Z,99937.90
2023-04-29T09:48:48.617Z,99931.80
2023-04-29T09:51:21.754Z,99936.34
2023-04-29T09:54:18.722Z,99931.25
2023-04-29T09:56:52.151Z,99926.63
2023-04-29T09:59:22.478Z,99923.48
2023-04-29T10:01:55.077Z,99917.08
2023-04-29T10:04:28.019Z,99923.00
2023-04-29T10:06:59.442Z,99925.00
2023-04-29T10:09:30.211Z,99918.69
2023-04-29T10:12:02.559Z,99920.69
2023-04-29T10:14:34.173Z,99913.98
2023-04-29T10:17:06.379Z,99918.56
2023-04-29T10:19:50.029Z,99918.28
2023-04-29T10:22:33.703Z,99907.42
2023-04-29T10:25:07.357Z,99904.73
2023-04-29T10:27:40.623Z,99907.62
2023-04-29T10:30:13.145Z,99902.30
2023-04-29T10:32:51.101Z,99900.86
2023-04-29T10:35:26.116Z,99897.11
2023-04-29T10:37:57.804Z,99896.50
2023-04-29T10:40:42.972Z,99892.35
2023-04-29T10:43:13.315Z,99897.84
2023-04-29T10:45:42.968Z,99893.91
2023-04-29T10:48:13.658Z,99892.80
2023-04-29T10:50:50.030Z,99891.39
2023-04-29T10:54:08.515Z,99886.58
2023-04-29T10:56:40.226Z,99881.77
2023-04-29T10:59:16.105Z,99876.46
2023-04-29T11:01:49.780Z,99869.98
2023-04-29T11:04:22.028Z,99873.18
2023-04-29T11:06:55.054Z,99865.74
2023-04-29T11:09:28.652Z,99864.26
2023-04-29T11:12:03.841Z,99856.88
2023-04-29T11:14:33.961Z,99850.91
2023-04-29T11:17:04.050Z,99846.78
2023-04-29T11:19:35.035Z,99842.93
2023-04-29T11:22:14.482Z,99843.61
2023-04-29T11:25:01.007Z,99843.59
2023-04-29T11:27:34.088Z,99835.99
2023-04-29T11:30:05.848Z,99848.21
2023-04-29T11:32:38.935Z,99839.23
2023-04-29T11:35:09.465Z,99837.58
2023-04-29T11:37:40.034Z,99838.73
2023-04-29T11:40:10.330Z,99841.41
2023-04-29T11:42:47.220Z,99839.05
2023-04-29T11:45:19.563Z,99841.63
2023-04-29T11:47:52.149Z,99834.14
2023-04-29T11:50:24.544Z,99830.94
2023-04-29T11:52:54.917Z,99834.46
2023-04-29T11:55:26.135Z,99836.15
2023-04-29T11:57:55.025Z,99829.02
2023-04-29T12:00:25.770Z,99828.20
2023-04-29T12:02:55.458Z,99827.70
2023-04-29T12:05:26.843Z,99829.52
2023-04-29T12:07:55.949Z,99826.59
2023-04-29T12:10:25.175Z,99816.73
2023-04-29T12:12:54.745Z,99821.70
2023-04-29T12:15:24.304Z,99824.31
2023-04-29T12:17:54.117Z,99823.26
2023-04-29T12:20:26.553Z,99823.02
2023-04-29T12:22:57.052Z,99817.73
2023-04-29T12:25:30.616Z,99816.65
2023-04-29T12:28:01.508Z,99814.80
2023-04-29T12:30:31.301Z,99817.66
2023-04-29T12:33:01.353Z,99811.39
2023-04-29T12:35:32.398Z,99823.95
2023-04-29T12:38:03.178Z,99813.57
2023-04-29T12:40:34.342Z,99807.70
2023-04-29T12:43:11.045Z,99806.19
2023-04-29T12:45:44.227Z,99804.79
2023-04-29T12:48:25.498Z,99802.96
2023-04-29T12:51:02.308Z,99799.52
2023-04-29T12:54:22.281Z,99798.77
2023-04-29T12:56:53.754Z,99790.20
2023-04-29T12:59:24.571Z,99790.60
2023-04-29T13:01:53.669Z,99790.84
2023-04-29T13:04:26.304Z,99787.11
2023-04-29T13:07:15.260Z,99782.02
2023-04-29T13:09:50.444Z,99781.50
2023-04-29T13:12:20.195Z,99778.83
2023-04-29T13:14:49.267Z,99780.80
2023-04-29T13:17:19.648Z,99783.63
2023-04-29T13:19:51.541Z,99780.84
2023-04-29T13:22:22.096Z,99784.88
2023-04-29T13:24:51.370Z,99780.89
2023-04-29T13:27:21.360Z,99782.10
2023-04-29T13:29:52.145Z,99782.95
2023-04-29T13:32:24.714Z,99779.09
2023-04-29T13:34:55.407Z,99776.06
2023-04-29T13:37:24.692Z,99777.48
2023-04-29T13:39:57.428Z,99775.27
2023-04-29T13:42:27.604Z,99777.83
2023-04-29T13:44:57.789Z,99774.42
2023-04-29T13:47:31.198Z,99775.91
2023-04-29T14:03:13.333Z,99780.92
2023-04-29T14:05:43.289Z,99781.16
2023-04-29T14:08:12.814Z,99786.19
2023-04-29T14:10:51.717Z,99784.46
2023-04-29T14:13:20.654Z,99780.79
2023-04-29T14:15:49.505Z,99781.70
2023-04-29T14:18:18.627Z,99782.89
2023-04-29T14:21:04.507Z,99781.47
2023-04-29T14:27:02.762Z,99779.71
2023-04-29T14:29:32.019Z,99775.34
2023-04-29T14:32:01.826Z,99772.58
2023-04-29T14:34:31.388Z,99774.39
2023-04-29T14:37:01.020Z,99772.54
2023-04-29T14:39:33.198Z,99768.70
2023-04-29T14:42:08.115Z,99772.13
2023-04-29T14:44:39.039Z,99772.95
2023-04-29T14:47:07.991Z,99770.38
2023-04-29T14:49:38.499Z,99770.86
2023-04-29T14:52:32.980Z,99770.18
2023-04-29T14:55:01.940Z,99764.83
2023-04-29T14:57:31.319Z,99760.86
2023-04-29T15:00:01.849Z,99757.42
2023-04-29T15:02:30.757Z,99753.67
2023-04-29T15:05:01.392Z,99748.21
2023-04-29T15:07:32.118Z,99750.05
2023-04-29T15:10:04.398Z,99751.11
2023-04-29T15:12:33.491Z,99752.18
2023-04-29T15:15:02.290Z,99753.52
2023-04-29T15:17:35.444Z,99756.23
2023-04-29T15:20:06.849Z,99751.78
2023-04-29T15:22:37.932Z,99753.00
2023-04-29T15:25:14.170Z,99757.33
2023-04-29T15:27:45.232Z,99750.73
2023-04-29T15:30:17.086Z,99757.38
2023-04-29T15:32:47.766Z,99757.45
2023-04-29T15:35:18.191Z,99757.96
2023-04-29T15:37:50.072Z,99755.42
2023-04-29T15:40:18.840Z,99757.40
2023-04-29T15:42:49.507Z,99763.17
2023-04-29T15:45:18.770Z,99767.90
2023-04-29T15:47:49.258Z,99770.63
2023-04-29T15:50:19.213Z,99776.03
2023-04-29T15:52:53.040Z,99776.04
2023-04-29T15:55:23.341Z,99779.16
2023-04-29T15:57:53.861Z,99777.52
2023-04-29T16:00:24.279Z,99776.10
2023-04-29T16:02:57.011Z,99772.95
2023-04-29T16:05:27.338Z,99774.67
2023-04-29T16:07:58.033Z,99773.73
2023-04-29T16:10:28.379Z,99773.27
2023-04-29T16:12:59.701Z,99775.71
2023-04-29T16:15:29.940Z,99775.27
2023-04-29T16:18:02.383Z,99779.98
2023-04-29T16:20:32.658Z,99778.16
2023-04-29T16:23:01.933Z,99776.59
2023-04-29T16:25:31.826Z,99776.69
2023-04-29T16:28:01.379Z,99776.20
2023-04-29T16:30:30.921Z,99780.27
2023-04-29T16:33:02.570Z,99770.08
2023-04-29T16:35:33.677Z,99775.64
2023-04-29T16:38:06.737Z,99774.81
2023-04-29T16:40:38.157Z,99777.39
2023-04-29T16:43:09.702Z,99782.56
2023-04-29T16:45:39.932Z,99777.19
2023-04-29T16:48:10.848Z,99774.81
2023-04-29T16:50:41.216Z,99777.11
2023-04-29T16:57:03.466Z,99775.48
2023-04-29T16:59:36.099Z,99775.90
2023-04-29T17:02:05.605Z,99776.75
2023-04-29T17:04:35.162Z,99780.94
2023-04-29T17:07:06.334Z,99780.66
2023-04-29T17:09:37.171Z,99782.87
2023-04-29T17:12:10.754Z,99784.39
2023-04-29T17:14:40.616Z,99787.27
2023-04-29T17:17:10.485Z,99790.30
2023-04-29T17:19:41.287Z,99793.35
2023-04-29T17:22:11.269Z,99791.95
2023-04-29T17:24:42.220Z,99794.23
2023-04-29T17:27:13.663Z,99796.71
2023-04-29T17:29:44.843Z,99798.61
2023-04-29T17:32:17.606Z,99796.97
2023-04-29T17:34:48.884Z,99798.88
2023-04-29T17:37:25.673Z,99798.53
2023-04-29T17:39:56.618Z,99800.52
2023-04-29T17:52:22.830Z,99797.50
2023-04-29T18:04:46.187Z,99796.89
2023-04-29T18:07:16.518Z,99791.80
2023-04-29T18:09:48.241Z,99793.34
2023-04-29T18:12:23.192Z,99800.07
2023-04-29T18:14:54.123Z,99801.82
2023-04-29T18:17:27.667Z,99803.42
2023-04-29T19:17:58.919Z,99823.79
2023-04-29T19:20:31.870Z,99824.21
2023-04-29T19:23:09.173Z,99823.58
2023-04-29T19:29:29.838Z,99825.05
2023-04-29T19:32:04.476Z,99822.67
2023-04-29T19:34:47.197Z,99820.08
2023-04-29T19:37:21.682Z,99827.75
2023-04-29T19:39:52.310Z,99828.23
2023-04-29T19:42:25.738Z,99828.87
2023-04-29T19:44:58.046Z,99828.44
2023-04-29T19:47:31.790Z,99830.49
2023-04-29T19:50:05.436Z,99833.56
2023-04-29T19:52:42.558Z,99838.11
2023-04-29T19:55:16.739Z,99839.38
2023-04-29T19:57:47.885Z,99841.91
2023-04-29T20:00:19.876Z,99844.81
2023-04-29T20:02:55.472Z,99846.48
2023-04-29T20:05:28.099Z,99849.77
2023-04-29T20:07:59.022Z,99848.27
2023-04-29T20:10:30.198Z,99845.52
2023-04-29T20:13:00.470Z,99846.27
2023-04-29T20:15:33.134Z,99846.91
2023-04-29T20:18:06.375Z,99844.39
2023-04-29T20:20:37.758Z,99846.51
2023-04-29T20:23:09.658Z,99853.33
2023-04-29T20:25:41.707Z,99854.81
2023-04-29T20:28:11.436Z,99857.50
2023-04-29T20:30:45.546Z,99855.48
2023-04-29T20:33:16.473Z,99860.76
2023-04-29T20:35:47.433Z,99864.14
2023-04-29T20:38:21.903Z,99866.72
2023-04-29T20:40:55.178Z,99877.29
2023-04-29T20:43:31.509Z,99883.95
2023-04-29T20:46:07.224Z,99890.95
2023-04-29T20:48:41.967Z,99895.69
2023-04-29T20:51:14.110Z,99897.10
2023-04-29T20:54:32.921Z,99902.29
2023-04-29T20:57:06.028Z,99903.99
2023-04-29T20:59:36.640Z,99909.00
2023-04-29T21:02:05.919Z,99913.68
2023-04-29T21:04:38.458Z,99914.67
2023-04-29T21:07:09.193Z,99919.77
2023-04-29T21:09:39.245Z,99921.93
2023-04-29T21:12:08.835Z,99924.73
2023-04-29T21:14:42.179Z,99934.80
2023-04-29T21:17:12.429Z,99935.20
2023-04-29T21:19:42.989Z,99938.84
2023-04-29T21:22:13.440Z,99938.55
2023-04-29T21:24:43.924Z,99945.25
2023-04-29T21:27:14.236Z,99948.97
2023-04-29T21:29:44.558Z,99951.13
2023-04-29T21:32:18.742Z,99952.88
2023-04-29T21:34:48.816Z,99953.89
2023-04-29T21:37:18.679Z,99959.50
2023-04-29T21:40:04.720Z,99960.73
2023-04-29T21:42:38.255Z,99964.58
2023-04-29T21:45:07.691Z,99967.12
2023-04-29T21:47:39.044Z,99965.97
2023-04-29T21:50:11.121Z,99965.73
2023-04-29T21:52:42.866Z,99968.65
2023-04-29T21:55:17.552Z,99969.86
2023-04-29T21:57:47.636Z,99972.94
2023-04-29T22:00:31.605Z,99968.56
2023-04-29T22:03:01.950Z,99975.36
2023-04-29T22:05:33.018Z,99980.55
2023-04-29T22:08:03.641Z,99982.15
2023-04-29T22:10:34.871Z,99979.98
2023-04-29T22:13:06.149Z,99982.07
2023-04-29T22:15:36.713Z,99984.02
2023-04-29T22:18:07.050Z,99976.01
2023-04-29T22:20:38.066Z,99977.13
2023-04-29T22:23:07.597Z,99975.72
2023-04-29T22:25:44.818Z,99970.94
2023-04-29T22:28:17.064Z,99971.77
2023-04-29T22:30:49.464Z,99970.21
2023-04-29T22:33:22.096Z,99974.44
2023-04-29T22:35:54.637Z,99977.13
2023-04-29T22:38:24.250Z,99977.71
2023-04-29T22:40:54.282Z,99979.33
2023-04-29T22:43:24.703Z,99983.80
2023-04-29T22:45:57.584Z,99984.79
2023-04-29T22:48:30.919Z,99986.98
2023-04-29T22:51:03.179Z,99988.10
2023-04-29T22:53:36.066Z,99990.31
2023-04-29T22:56:08.312Z,99989.73
2023-04-29T22:58:40.148Z,99992.41
2023-04-29T23:01:12.185Z,99992.42
2023-04-29T23:03:45.366Z,99991.23
2023-04-29T23:06:17.334Z,99991.17
2023-04-29T23:08:50.678Z,99996.25
2023-04-29T23:11:20.336Z,100000.36
2023-04-29T23:13:50.362Z,100003.61
2023-04-29T23:16:27.001Z,100008.35
2023-04-29T23:18:58.577Z,100012.61
2023-04-29T23:21:30.763Z,100010.60
2023-04-29T23:24:03.430Z,100016.16
2023-04-29T23:26:34.369Z,100015.64
2023-04-29T23:29:04.690Z,100024.38
2023-04-29T23:31:34.126Z,100023.59
2023-04-29T23:34:03.408Z,100026.91
2023-04-29T23:36:34.951Z,100031.27
2023-04-29T23:39:04.176Z,100035.59
2023-04-29T23:41:35.093Z,100032.39
2023-04-29T23:44:05.074Z,100040.36
2023-04-29T23:46:35.106Z,100040.41
2023-04-29T23:49:05.971Z,100044.11
2023-04-29T23:51:36.688Z,100043.63
2023-04-29T23:54:32.276Z,100044.27
2023-04-29T23:57:04.589Z,100047.39
2023-04-29T23:59:33.668Z,100050.45
